sensor_id;sensor_type;location;lat;lon;timestamp;pressure;altitude;pressure_sealevel;temperature;humidity
77867;BME280;67271;59.120;37.970;2023-02-01T00:05:09;98233.78;;;-0.71;76.30
77867;BME280;67271;59.120;37.970;2023-02-01T00:07:36;98227.66;;;-0.72;75.86
77867;BME280;67271;59.120;37.970;2023-02-01T00:10:03;98243.59;;;-0.72;76.43
77867;BME280;67271;59.120;37.970;2023-02-01T00:12:30;98250.56;;;-0.71;76.43
77867;BME280;67271;59.120;37.970;2023-02-01T00:14:56;98248.91;;;-0.72;76.07
77867;BME280;67271;59.120;37.970;2023-02-01T00:17:22;98251.22;;;-0.69;75.71
77867;BME280;67271;59.120;37.970;2023-02-01T00:19:48;98251.22;;;-0.69;75.67
77867;BME280;67271;59.120;37.970;2023-02-01T00:22:13;98258.34;;;-0.69;76.12
77867;BME280;67271;59.120;37.970;2023-02-01T00:24:39;98256.69;;;-0.70;76.80
77867;BME280;67271;59.120;37.970;2023-02-01T00:27:05;98255.03;;;-0.71;76.75
77867;BME280;67271;59.120;37.970;2023-02-01T00:29:31;98248.91;;;-0.72;76.22
77867;BME280;67271;59.120;37.970;2023-02-01T00:31:57;98253.38;;;-0.72;76.14
77867;BME280;67271;59.120;37.970;2023-02-01T00:34:23;98261.34;;;-0.72;76.21
77867;BME280;67271;59.120;37.970;2023-02-01T00:36:49;98266.66;;;-0.72;76.95
77867;BME280;67271;59.120;37.970;2023-02-01T00:39:15;98269.31;;;-0.72;76.67
77867;BME280;67271;59.120;37.970;2023-02-01T00:41:41;98265.66;;;-0.71;76.25
77867;BME280;67271;59.120;37.970;2023-02-01T00:44:07;98260.34;;;-0.71;75.86
77867;BME280;67271;59.120;37.970;2023-02-01T00:46:33;98268.31;;;-0.71;76.63
77867;BME280;67271;59.120;37.970;2023-02-01T00:49:00;98271.81;;;-0.71;76.51
77867;BME280;67271;59.120;37.970;2023-02-01T00:51:28;98266.50;;;-0.71;76.67
77867;BME280;67271;59.120;37.970;2023-02-01T00:53:55;98279.09;;;-0.73;76.23
77867;BME280;67271;59.120;37.970;2023-02-01T00:56:21;98266.19;;;-0.76;76.21
77867;BME280;67271;59.120;37.970;2023-02-01T00:58:47;98267.19;;;-0.77;76.22
77867;BME280;67271;59.120;37.970;2023-02-01T01:01:16;98279.47;;;-0.76;75.90
77867;BME280;67271;59.120;37.970;2023-02-01T01:03:51;98276.81;;;-0.76;75.93
77867;BME280;67271;59.120;37.970;2023-02-01T01:06:20;98271.66;;;-0.77;76.30
77867;BME280;67271;59.120;37.970;2023-02-01T01:08:47;98271.00;;;-0.80;76.16
77867;BME280;67271;59.120;37.970;2023-02-01T01:11:21;98270.16;;;-0.80;76.07
77867;BME280;67271;59.120;37.970;2023-02-01T01:13:49;98265.00;;;-0.82;76.38
77867;BME280;67271;59.120;37.970;2023-02-01T01:16:15;98273.19;;;-0.83;75.96
77867;BME280;67271;59.120;37.970;2023-02-01T01:18:41;98274.50;;;-0.87;76.69
77867;BME280;67271;59.120;37.970;2023-02-01T01:21:08;98283.00;;;-0.92;76.45
77867;BME280;67271;59.120;37.970;2023-02-01T01:23:35;98276.34;;;-0.96;76.50
77867;BME280;67271;59.120;37.970;2023-02-01T01:26:08;98273.22;;;-0.99;75.78
77867;BME280;67271;59.120;37.970;2023-02-01T01:28:34;98270.88;;;-1.02;76.06
77867;BME280;67271;59.120;37.970;2023-02-01T01:31:00;98280.50;;;-1.01;76.58
77867;BME280;67271;59.120;37.970;2023-02-01T01:33:25;98283.16;;;-1.01;76.57
77867;BME280;67271;59.120;37.970;2023-02-01T01:35:51;98282.00;;;-0.99;76.78
77867;BME280;67271;59.120;37.970;2023-02-01T01:38:17;98285.50;;;-0.98;76.82
77867;BME280;67271;59.120;37.970;2023-02-01T01:40:46;98282.84;;;-0.98;76.26
77867;BME280;67271;59.120;37.970;2023-02-01T01:43:14;98286.13;;;-0.96;76.03
77867;BME280;67271;59.120;37.970;2023-02-01T01:45:40;98286.97;;;-0.96;76.03
77867;BME280;67271;59.120;37.970;2023-02-01T01:48:27;98290.44;;;-0.95;75.91
77867;BME280;67271;59.120;37.970;2023-02-01T01:51:05;98293.25;;;-0.97;75.81
77867;BME280;67271;59.120;37.970;2023-02-01T01:53:39;98290.81;;;-0.98;76.31
77867;BME280;67271;59.120;37.970;2023-02-01T01:56:07;98293.63;;;-1.00;75.94
77867;BME280;67271;59.120;37.970;2023-02-01T01:58:34;98296.13;;;-0.98;76.32
77867;BME280;67271;59.120;37.970;2023-02-01T02:01:00;98309.19;;;-0.97;76.09
77867;BME280;67271;59.120;37.970;2023-02-01T02:03:33;98300.06;;;-0.94;75.85
77867;BME280;67271;59.120;37.970;2023-02-01T02:06:02;98305.38;;;-0.94;75.89
77867;BME280;67271;59.120;37.970;2023-02-01T02:08:29;98300.41;;;-0.97;76.19
77867;BME280;67271;59.120;37.970;2023-02-01T02:10:55;98295.44;;;-1.00;76.25
77867;BME280;67271;59.120;37.970;2023-02-01T02:13:42;98303.41;;;-1.00;75.34
77867;BME280;67271;59.120;37.970;2023-02-01T02:16:26;98303.25;;;-0.99;76.08
77867;BME280;67271;59.120;37.970;2023-02-01T02:33:28;98313.50;;;-1.04;74.93
77867;BME280;67271;59.120;37.970;2023-02-01T02:36:18;98321.00;;;-1.07;75.38
77867;BME280;67271;59.120;37.970;2023-02-01T02:38:56;98322.81;;;-1.08;75.73
77867;BME280;67271;59.120;37.970;2023-02-01T02:44:19;98325.13;;;-1.05;75.95
77867;BME280;67271;59.120;37.970;2023-02-01T02:47:16;98332.78;;;-1.02;74.95
77867;BME280;67271;59.120;37.970;2023-02-01T02:50:10;98336.91;;;-0.99;74.62
77867;BME280;67271;59.120;37.970;2023-02-01T02:53:03;98327.63;;;-0.95;74.13
77867;BME280;67271;59.120;37.970;2023-02-01T02:55:50;98337.91;;;-0.92;74.24
77867;BME280;67271;59.120;37.970;2023-02-01T02:58:19;98336.91;;;-0.91;74.14
77867;BME280;67271;59.120;37.970;2023-02-01T03:01:04;98341.19;;;-0.90;74.18
77867;BME280;67271;59.120;37.970;2023-02-01T03:03:49;98346.50;;;-0.90;74.51
77867;BME280;67271;59.120;37.970;2023-02-01T03:06:35;98349.16;;;-0.90;74.17
77867;BME280;67271;59.120;37.970;2023-02-01T03:09:06;98351.81;;;-0.90;74.85
77867;BME280;67271;59.120;37.970;2023-02-01T03:11:35;98355.13;;;-0.88;74.29
77867;BME280;67271;59.120;37.970;2023-02-01T03:14:21;98357.31;;;-0.92;74.17
77867;BME280;67271;59.120;37.970;2023-02-01T03:16:52;98355.81;;;-0.94;74.18
77867;BME280;67271;59.120;37.970;2023-02-01T03:19:29;98356.13;;;-0.97;74.90
77867;BME280;67271;59.120;37.970;2023-02-01T03:22:08;98361.81;;;-1.00;74.80
77867;BME280;67271;59.120;37.970;2023-02-01T03:24:41;98364.13;;;-1.05;74.29
77867;BME280;67271;59.120;37.970;2023-02-01T03:30:14;98371.44;;;-1.15;74.59
77867;BME280;67271;59.120;37.970;2023-02-01T03:32:46;98371.75;;;-1.19;74.96
77867;BME280;67271;59.120;37.970;2023-02-01T03:35:42;98374.41;;;-1.19;75.00
77867;BME280;67271;59.120;37.970;2023-02-01T03:40:45;98390.00;;;-1.15;74.89
77867;BME280;67271;59.120;37.970;2023-02-01T03:43:14;98392.50;;;-1.14;75.14
77867;BME280;67271;59.120;37.970;2023-02-01T03:45:50;98396.81;;;-1.13;74.63
77867;BME280;67271;59.120;37.970;2023-02-01T03:48:19;98407.25;;;-1.11;75.29
77867;BME280;67271;59.120;37.970;2023-02-01T03:50:49;98405.56;;;-1.12;74.77
77867;BME280;67271;59.120;37.970;2023-02-01T03:53:20;98412.91;;;-1.14;74.88
77867;BME280;67271;59.120;37.970;2023-02-01T03:55:48;98411.91;;;-1.13;75.01
77867;BME280;67271;59.120;37.970;2023-02-01T03:58:18;98418.22;;;-1.14;74.77
77867;BME280;67271;59.120;37.970;2023-02-01T04:00:49;98415.41;;;-1.13;74.80
77867;BME280;67271;59.120;37.970;2023-02-01T04:03:15;98425.19;;;-1.13;74.57
77867;BME280;67271;59.120;37.970;2023-02-01T04:05:41;98427.84;;;-1.13;74.78
77867;BME280;67271;59.120;37.970;2023-02-01T04:08:08;98431.31;;;-1.13;74.84
77867;BME280;67271;59.120;37.970;2023-02-01T04:10:33;98430.47;;;-1.13;75.03
77867;BME280;67271;59.120;37.970;2023-02-01T04:12:59;98435.78;;;-1.13;75.17
77867;BME280;67271;59.120;37.970;2023-02-01T04:15:25;98428.00;;;-1.15;74.80
77867;BME280;67271;59.120;37.970;2023-02-01T04:17:51;98437.78;;;-1.15;75.19
77867;BME280;67271;59.120;37.970;2023-02-01T04:20:17;98439.44;;;-1.14;74.74
77867;BME280;67271;59.120;37.970;2023-02-01T04:22:43;98444.41;;;-1.11;74.86
77867;BME280;67271;59.120;37.970;2023-02-01T04:25:09;98438.09;;;-1.10;74.64
77867;BME280;67271;59.120;37.970;2023-02-01T04:27:36;98450.38;;;-1.09;74.66
77867;BME280;67271;59.120;37.970;2023-02-01T04:30:03;98447.56;;;-1.08;74.95
77867;BME280;67271;59.120;37.970;2023-02-01T04:32:29;98453.72;;;-1.07;75.46
77867;BME280;67271;59.120;37.970;2023-02-01T04:34:55;98459.69;;;-1.05;75.46
77867;BME280;67271;59.120;37.970;2023-02-01T04:37:21;98454.38;;;-1.05;74.64
77867;BME280;67271;59.120;37.970;2023-02-01T04:39:46;98460.34;;;-1.03;75.44
77867;BME280;67271;59.120;37.970;2023-02-01T04:42:12;98467.47;;;-1.04;75.25
77867;BME280;67271;59.120;37.970;2023-02-01T04:44:38;98465.47;;;-1.02;75.10
77867;BME280;67271;59.120;37.970;2023-02-01T04:47:07;98473.28;;;-1.00;75.31
77867;BME280;67271;59.120;37.970;2023-02-01T04:49:33;98471.31;;;-0.98;74.46
77867;BME280;67271;59.120;37.970;2023-02-01T04:51:59;98473.78;;;-0.97;74.81
77867;BME280;67271;59.120;37.970;2023-02-01T04:54:24;98478.44;;;-0.99;74.83
77867;BME280;67271;59.120;37.970;2023-02-01T04:56:50;98480.56;;;-1.02;75.07
77867;BME280;67271;59.120;37.970;2023-02-01T04:59:16;98472.97;;;-1.05;75.27
77867;BME280;67271;59.120;37.970;2023-02-01T05:01:42;98471.63;;;-1.09;75.98
77867;BME280;67271;59.120;37.970;2023-02-01T05:04:08;98473.56;;;-1.20;76.09
77867;BME280;67271;59.120;37.970;2023-02-01T05:06:33;98470.72;;;-1.34;76.42
77867;BME280;67271;59.120;37.970;2023-02-01T05:08:59;98478.81;;;-1.52;76.80
77867;BME280;67271;59.120;37.970;2023-02-01T05:11:25;98475.78;;;-1.65;77.03
77867;BME280;67271;59.120;37.970;2023-02-01T05:14:09;98485.53;;;-1.74;77.64
77867;BME280;67271;59.120;37.970;2023-02-01T05:16:35;98487.00;;;-1.79;77.03
77867;BME280;67271;59.120;37.970;2023-02-01T05:19:01;98489.16;;;-1.83;76.99
77867;BME280;67271;59.120;37.970;2023-02-01T05:21:27;98499.59;;;-1.81;77.07
77867;BME280;67271;59.120;37.970;2023-02-01T05:23:52;98499.44;;;-1.72;76.98
77867;BME280;67271;59.120;37.970;2023-02-01T05:26:39;98498.19;;;-1.60;76.78
77867;BME280;67271;59.120;37.970;2023-02-01T05:29:06;98504.34;;;-1.51;76.48
77867;BME280;67271;59.120;37.970;2023-02-01T05:31:32;98504.38;;;-1.43;75.91
77867;BME280;67271;59.120;37.970;2023-02-01T05:33:58;98512.34;;;-1.43;76.35
77867;BME280;67271;59.120;37.970;2023-02-01T05:36:24;98518.63;;;-1.44;75.60
77867;BME280;67271;59.120;37.970;2023-02-01T05:38:50;98516.00;;;-1.44;76.00
77867;BME280;67271;59.120;37.970;2023-02-01T05:41:15;98525.28;;;-1.40;75.50
77867;BME280;67271;59.120;37.970;2023-02-01T05:43:41;98514.34;;;-1.37;75.30
77867;BME280;67271;59.120;37.970;2023-02-01T05:46:07;98529.94;;;-1.34;75.78
77867;BME280;67271;59.120;37.970;2023-02-01T05:48:36;98527.66;;;-1.29;75.34
77867;BME280;67271;59.120;37.970;2023-02-01T05:51:02;98531.78;;;-1.26;75.38
77867;BME280;67271;59.120;37.970;2023-02-01T05:53:27;98533.44;;;-1.25;75.09
77867;BME280;67271;59.120;37.970;2023-02-01T05:55:53;98534.28;;;-1.25;75.72
77867;BME280;67271;59.120;37.970;2023-02-01T05:58:19;98535.94;;;-1.24;75.14
77867;BME280;67271;59.120;37.970;2023-02-01T06:00:45;98536.78;;;-1.23;75.25
77867;BME280;67271;59.120;37.970;2023-02-01T06:03:10;98546.25;;;-1.21;75.29
77867;BME280;67271;59.120;37.970;2023-02-01T06:05:36;98547.91;;;-1.11;74.91
77867;BME280;67271;59.120;37.970;2023-02-01T06:08:02;98557.41;;;-1.01;75.07
77867;BME280;67271;59.120;37.970;2023-02-01T06:10:28;98560.91;;;-0.92;74.43
77867;BME280;67271;59.120;37.970;2023-02-01T06:12:54;98559.09;;;-0.84;74.40
77867;BME280;67271;59.120;37.970;2023-02-01T06:15:19;98560.41;;;-0.80;74.93
77867;BME280;67271;59.120;37.970;2023-02-01T06:17:46;98556.94;;;-0.80;74.49
77867;BME280;67271;59.120;37.970;2023-02-01T06:20:13;98570.06;;;-0.79;74.67
77867;BME280;67271;59.120;37.970;2023-02-01T06:22:40;98577.84;;;-0.77;74.96
77867;BME280;67271;59.120;37.970;2023-02-01T06:25:08;98565.91;;;-0.73;74.18
77867;BME280;67271;59.120;37.970;2023-02-01T06:27:35;98573.41;;;-0.68;74.47
77867;BME280;67271;59.120;37.970;2023-02-01T06:30:05;98580.53;;;-0.61;74.82
77867;BME280;67271;59.120;37.970;2023-02-01T06:32:31;98586.84;;;-0.54;73.83
77867;BME280;67271;59.120;37.970;2023-02-01T06:34:56;98589.00;;;-0.49;74.63
77867;BME280;67271;59.120;37.970;2023-02-01T06:37:23;98586.66;;;-0.52;74.54
77867;BME280;67271;59.120;37.970;2023-02-01T06:39:54;98587.84;;;-0.55;74.56
77867;BME280;67271;59.120;37.970;2023-02-01T06:42:20;98590.53;;;-0.47;74.76
77867;BME280;67271;59.120;37.970;2023-02-01T06:44:46;98596.16;;;-0.42;74.48
77867;BME280;67271;59.120;37.970;2023-02-01T06:47:12;98602.31;;;-0.41;74.13
77867;BME280;67271;59.120;37.970;2023-02-01T06:49:38;98602.78;;;-0.38;74.18
77867;BME280;67271;59.120;37.970;2023-02-01T06:52:03;98607.13;;;-0.28;73.32
77867;BME280;67271;59.120;37.970;2023-02-01T06:54:29;98609.47;;;-0.25;73.92
77867;BME280;67271;59.120;37.970;2023-02-01T06:56:57;98606.97;;;-0.27;73.19
77867;BME280;67271;59.120;37.970;2023-02-01T06:59:23;98606.28;;;-0.29;73.17
77867;BME280;67271;59.120;37.970;2023-02-01T07:01:49;98612.44;;;-0.28;74.12
77867;BME280;67271;59.120;37.970;2023-02-01T07:04:15;98616.44;;;-0.32;74.10
77867;BME280;67271;59.120;37.970;2023-02-01T07:06:40;98615.44;;;-0.31;74.20
77867;BME280;67271;59.120;37.970;2023-02-01T07:09:07;98614.44;;;-0.30;74.23
77867;BME280;67271;59.120;37.970;2023-02-01T07:11:33;98620.41;;;-0.28;73.58
77867;BME280;67271;59.120;37.970;2023-02-01T07:13:59;98615.75;;;-0.34;73.76
77867;BME280;67271;59.120;37.970;2023-02-01T07:16:25;98615.44;;;-0.31;74.05
77867;BME280;67271;59.120;37.970;2023-02-01T07:18:52;98616.75;;;-0.19;73.60
77867;BME280;67271;59.120;37.970;2023-02-01T07:21:19;98617.59;;;-0.11;73.47
77867;BME280;67271;59.120;37.970;2023-02-01T07:23:44;98630.72;;;-0.09;73.29
77867;BME280;67271;59.120;37.970;2023-02-01T07:26:12;98624.75;;;-0.03;73.01
77867;BME280;67271;59.120;37.970;2023-02-01T07:28:38;98632.03;;;0.03;73.28
77867;BME280;67271;59.120;37.970;2023-02-01T07:31:16;98632.72;;;0.13;72.69
77867;BME280;67271;59.120;37.970;2023-02-01T07:33:44;98642.00;;;0.17;72.41
77867;BME280;67271;59.120;37.970;2023-02-01T07:36:15;98642.66;;;0.19;72.71
77867;BME280;67271;59.120;37.970;2023-02-01T07:38:42;98646.66;;;0.23;72.70
77867;BME280;67271;59.120;37.970;2023-02-01T07:41:08;98646.00;;;0.21;72.47
77867;BME280;67271;59.120;37.970;2023-02-01T07:43:35;98653.16;;;0.21;72.39
77867;BME280;67271;59.120;37.970;2023-02-01T07:46:02;98652.16;;;0.22;72.35
77867;BME280;67271;59.120;37.970;2023-02-01T07:48:29;98646.31;;;0.18;72.58
77867;BME280;67271;59.120;37.970;2023-02-01T07:51:03;98648.81;;;0.20;72.20
77867;BME280;67271;59.120;37.970;2023-02-01T07:53:30;98647.84;;;0.13;72.53
77867;BME280;67271;59.120;37.970;2023-02-01T07:55:57;98648.31;;;0.08;72.36
77867;BME280;67271;59.120;37.970;2023-02-01T07:58:24;98653.63;;;0.16;72.22
77867;BME280;67271;59.120;37.970;2023-02-01T08:00:50;98651.81;;;0.25;72.25
77867;BME280;67271;59.120;37.970;2023-02-01T08:03:34;98655.81;;;0.29;71.84
77867;BME280;67271;59.120;37.970;2023-02-01T08:06:00;98650.31;;;0.22;71.67
77867;BME280;67271;59.120;37.970;2023-02-01T08:08:26;98652.31;;;0.20;71.61
77867;BME280;67271;59.120;37.970;2023-02-01T08:10:57;98658.31;;;0.22;71.44
77867;BME280;67271;59.120;37.970;2023-02-01T08:13:23;98657.28;;;0.23;71.62
77867;BME280;67271;59.120;37.970;2023-02-01T08:15:48;98660.31;;;0.20;71.96
77867;BME280;67271;59.120;37.970;2023-02-01T08:18:14;98664.28;;;0.24;71.97
77867;BME280;67271;59.120;37.970;2023-02-01T08:20:41;98673.75;;;0.27;71.70
77867;BME280;67271;59.120;37.970;2023-02-01T08:23:09;98667.91;;;0.31;71.54
77867;BME280;67271;59.120;37.970;2023-02-01T08:25:35;98673.06;;;0.41;71.21
77867;BME280;67271;59.120;37.970;2023-02-01T08:28:02;98676.88;;;0.47;70.85
77867;BME280;67271;59.120;37.970;2023-02-01T08:30:28;98675.19;;;0.62;70.87
77867;BME280;67271;59.120;37.970;2023-02-01T08:32:53;98682.47;;;0.76;70.60
77867;BME280;67271;59.120;37.970;2023-02-01T08:35:19;98695.13;;;0.90;70.16
77867;BME280;67271;59.120;37.970;2023-02-01T08:37:45;98683.13;;;0.86;69.84
77867;BME280;67271;59.120;37.970;2023-02-01T08:40:11;98679.03;;;0.67;71.25
77867;BME280;67271;59.120;37.970;2023-02-01T08:42:39;98685.53;;;0.57;71.21
77867;BME280;67271;59.120;37.970;2023-02-01T08:45:25;98688.00;;;0.66;70.84
77867;BME280;67271;59.120;37.970;2023-02-01T08:47:55;98684.31;;;0.75;71.35
77867;BME280;67271;59.120;37.970;2023-02-01T08:50:21;98688.28;;;0.88;70.60
77867;BME280;67271;59.120;37.970;2023-02-01T08:52:47;98692.78;;;0.87;70.99
77867;BME280;67271;59.120;37.970;2023-02-01T08:55:14;98686.06;;;0.99;70.71
77867;BME280;67271;59.120;37.970;2023-02-01T08:57:40;98684.06;;;1.09;70.09
77867;BME280;67271;59.120;37.970;2023-02-01T09:00:10;98682.03;;;1.20;70.51
77867;BME280;67271;59.120;37.970;2023-02-01T09:02:36;98683.28;;;1.32;69.81
77867;BME280;67271;59.120;37.970;2023-02-01T09:05:03;98692.91;;;1.41;69.39
77867;BME280;67271;59.120;37.970;2023-02-01T09:07:30;98693.50;;;1.51;69.73
77867;BME280;67271;59.120;37.970;2023-02-01T09:09:56;98697.09;;;1.66;69.01
77867;BME280;67271;59.120;37.970;2023-02-01T09:12:25;98699.13;;;1.64;69.06
77867;BME280;67271;59.120;37.970;2023-02-01T09:14:51;98701.47;;;1.59;68.90
77867;BME280;67271;59.120;37.970;2023-02-01T09:17:17;98696.97;;;1.60;68.79
77867;BME280;67271;59.120;37.970;2023-02-01T09:19:42;98706.44;;;1.62;69.28
77867;BME280;67271;59.120;37.970;2023-02-01T09:22:08;98702.25;;;1.37;69.92
77867;BME280;67271;59.120;37.970;2023-02-01T09:24:34;98707.81;;;1.19;70.71
77867;BME280;67271;59.120;37.970;2023-02-01T09:27:00;98702.66;;;1.17;70.68
77867;BME280;67271;59.120;37.970;2023-02-01T09:29:25;98706.63;;;1.22;70.78
77867;BME280;67271;59.120;37.970;2023-02-01T09:31:51;98713.78;;;1.21;70.93
77867;BME280;67271;59.120;37.970;2023-02-01T09:34:17;98714.09;;;1.34;70.63
77867;BME280;67271;59.120;37.970;2023-02-01T09:36:43;98712.81;;;1.53;70.42
77867;BME280;67271;59.120;37.970;2023-02-01T09:39:09;98722.69;;;1.75;69.34
77867;BME280;67271;59.120;37.970;2023-02-01T09:46:45;98725.13;;;1.62;70.21
77867;BME280;67271;59.120;37.970;2023-02-01T09:49:27;98721.13;;;1.58;70.53
77867;BME280;67271;59.120;37.970;2023-02-01T09:51:55;98725.16;;;1.54;70.34
77867;BME280;67271;59.120;37.970;2023-02-01T09:54:27;98724.97;;;1.55;70.19
77867;BME280;67271;59.120;37.970;2023-02-01T09:57:08;98727.56;;;1.41;70.33
77867;BME280;67271;59.120;37.970;2023-02-01T09:59:41;98730.75;;;1.28;70.88
77867;BME280;67271;59.120;37.970;2023-02-01T10:02:20;98726.88;;;1.39;71.09
77867;BME280;67271;59.120;37.970;2023-02-01T10:04:47;98739.88;;;1.42;70.08
77867;BME280;67271;59.120;37.970;2023-02-01T10:21:04;98741.78;;;1.25;70.26
77867;BME280;67271;59.120;37.970;2023-02-01T10:26:24;98738.06;;;1.34;69.72
77867;BME280;67271;59.120;37.970;2023-02-01T10:28:58;98740.34;;;1.45;69.30
77867;BME280;67271;59.120;37.970;2023-02-01T10:31:26;98740.03;;;1.40;70.12
77867;BME280;67271;59.120;37.970;2023-02-01T10:33:58;98738.97;;;1.58;69.21
77867;BME280;67271;59.120;37.970;2023-02-01T10:36:34;98735.25;;;1.67;69.12
77867;BME280;67271;59.120;37.970;2023-02-01T10:39:03;98737.25;;;1.73;69.58
77867;BME280;67271;59.120;37.970;2023-02-01T10:41:36;98740.78;;;1.65;69.09
77867;BME280;67271;59.120;37.970;2023-02-01T10:44:09;98741.84;;;1.48;70.06
77867;BME280;67271;59.120;37.970;2023-02-01T10:46:38;98740.66;;;1.50;69.90
77867;BME280;67271;59.120;37.970;2023-02-01T10:49:05;98737.97;;;1.50;69.97
77867;BME280;67271;59.120;37.970;2023-02-01T10:51:47;98738.19;;;1.49;69.75
77867;BME280;67271;59.120;37.970;2023-02-01T10:54:31;98748.88;;;1.41;69.77
77867;BME280;67271;59.120;37.970;2023-02-01T10:56:57;98747.25;;;1.32;70.29
77867;BME280;67271;59.120;37.970;2023-02-01T10:59:24;98747.94;;;1.26;70.12
77867;BME280;67271;59.120;37.970;2023-02-01T11:01:59;98738.56;;;1.30;70.12
77867;BME280;67271;59.120;37.970;2023-02-01T11:04:28;98742.78;;;1.24;69.81
77867;BME280;67271;59.120;37.970;2023-02-01T11:07:08;98744.56;;;1.32;69.82
77867;BME280;67271;59.120;37.970;2023-02-01T11:09:40;98744.28;;;1.27;69.66
77867;BME280;67271;59.120;37.970;2023-02-01T11:12:25;98747.78;;;1.19;69.83
77867;BME280;67271;59.120;37.970;2023-02-01T11:14:57;98747.66;;;1.12;69.72
77867;BME280;67271;59.120;37.970;2023-02-01T11:17:28;98754.28;;;1.16;70.01
77867;BME280;67271;59.120;37.970;2023-02-01T11:19:59;98754.44;;;1.15;70.54
77867;BME280;67271;59.120;37.970;2023-02-01T11:22:26;98752.31;;;1.10;70.04
77867;BME280;67271;59.120;37.970;2023-02-01T11:24:54;98747.00;;;1.02;69.90
77867;BME280;67271;59.120;37.970;2023-02-01T11:27:21;98752.19;;;0.96;70.72
77867;BME280;67271;59.120;37.970;2023-02-01T11:29:50;98757.69;;;0.86;70.43
77867;BME280;67271;59.120;37.970;2023-02-01T11:32:19;98756.38;;;0.82;70.31
77867;BME280;67271;59.120;37.970;2023-02-01T11:34:49;98753.50;;;0.84;70.61
77867;BME280;67271;59.120;37.970;2023-02-01T11:39:42;98759.34;;;0.79;70.55
77867;BME280;67271;59.120;37.970;2023-02-01T11:42:16;98761.84;;;0.81;70.69
77867;BME280;67271;59.120;37.970;2023-02-01T11:44:44;98764.84;;;0.86;70.81
77867;BME280;67271;59.120;37.970;2023-02-01T11:49:50;98771.00;;;0.78;70.67
77867;BME280;67271;59.120;37.970;2023-02-01T12:15:56;98791.81;;;0.42;70.75
77867;BME280;67271;59.120;37.970;2023-02-01T12:18:39;98784.34;;;0.37;70.55
77867;BME280;67271;59.120;37.970;2023-02-01T12:21:28;98795.97;;;0.36;71.33
77867;BME280;67271;59.120;37.970;2023-02-01T12:29:39;98802.28;;;0.35;70.68
77867;BME280;67271;59.120;37.970;2023-02-01T12:43:40;98806.09;;;0.25;71.62
77867;BME280;67271;59.120;37.970;2023-02-01T12:46:13;98806.91;;;0.25;71.83
77867;BME280;67271;59.120;37.970;2023-02-01T12:48:59;98810.56;;;0.24;71.78
77867;BME280;67271;59.120;37.970;2023-02-01T12:51:34;98809.56;;;0.25;71.31
77867;BME280;67271;59.120;37.970;2023-02-01T12:54:27;98810.56;;;0.24;71.15
77867;BME280;67271;59.120;37.970;2023-02-01T12:57:00;98814.41;;;0.22;71.59
77867;BME280;67271;59.120;37.970;2023-02-01T13:07:41;98822.00;;;0.09;72.08
77867;BME280;67271;59.120;37.970;2023-02-01T13:10:20;98820.84;;;0.03;72.04
77867;BME280;67271;59.120;37.970;2023-02-01T13:13:10;98814.69;;;0.03;71.69
77867;BME280;67271;59.120;37.970;2023-02-01T13:15:42;98820.16;;;0.01;71.90
77867;BME280;67271;59.120;37.970;2023-02-01T13:18:16;98829.16;;;0.00;72.37
77867;BME280;67271;59.120;37.970;2023-02-01T13:21:04;98825.81;;;-0.02;71.58
77867;BME280;67271;59.120;37.970;2023-02-01T13:23:38;98837.44;;;-0.03;71.60
77867;BME280;67271;59.120;37.970;2023-02-01T13:26:05;98835.09;;;-0.06;71.77
77867;BME280;67271;59.120;37.970;2023-02-01T13:28:53;98838.75;;;-0.07;72.44
77867;BME280;67271;59.120;37.970;2023-02-01T13:34:35;98838.75;;;-0.15;71.75
77867;BME280;67271;59.120;37.970;2023-02-01T13:39:52;98844.69;;;-0.21;71.88
77867;BME280;67271;59.120;37.970;2023-02-01T13:42:29;98846.00;;;-0.25;72.75
77867;BME280;67271;59.120;37.970;2023-02-01T13:44:59;98850.47;;;-0.26;72.59
77867;BME280;67271;59.120;37.970;2023-02-01T13:47:30;98845.47;;;-0.29;72.69
77867;BME280;67271;59.120;37.970;2023-02-01T13:50:01;98850.78;;;-0.29;72.49
77867;BME280;67271;59.120;37.970;2023-02-01T13:52:41;98851.47;;;-0.27;72.15
77867;BME280;67271;59.120;37.970;2023-02-01T13:55:24;98853.63;;;-0.30;72.50
77867;BME280;67271;59.120;37.970;2023-02-01T14:00:40;98858.91;;;-0.38;72.94
77867;BME280;67271;59.120;37.970;2023-02-01T14:10:47;98874.16;;;-0.41;73.37
77867;BME280;67271;59.120;37.970;2023-02-01T14:13:30;98878.94;;;-0.44;73.14
77867;BME280;67271;59.120;37.970;2023-02-01T14:26:47;98888.50;;;-0.59;73.67
77867;BME280;67271;59.120;37.970;2023-02-01T14:39:53;98907.94;;;-0.59;73.01
77867;BME280;67271;59.120;37.970;2023-02-01T15:01:22;98915.25;;;-0.61;73.50
77867;BME280;67271;59.120;37.970;2023-02-01T15:04:03;98917.06;;;-0.61;73.44
77867;BME280;67271;59.120;37.970;2023-02-01T15:06:40;98912.72;;;-0.62;73.62
77867;BME280;67271;59.120;37.970;2023-02-01T15:09:16;98918.19;;;-0.64;73.61
77867;BME280;67271;59.120;37.970;2023-02-01T15:12:23;98913.72;;;-0.63;73.26
77867;BME280;67271;59.120;37.970;2023-02-01T15:15:14;98926.16;;;-0.64;73.75
77867;BME280;67271;59.120;37.970;2023-02-01T15:17:50;98920.84;;;-0.64;73.14
77867;BME280;67271;59.120;37.970;2023-02-01T15:20:20;98921.00;;;-0.65;73.37
77867;BME280;67271;59.120;37.970;2023-02-01T15:22:55;98922.81;;;-0.66;72.99
77867;BME280;67271;59.120;37.970;2023-02-01T15:25:27;98920.84;;;-0.64;73.63
77867;BME280;67271;59.120;37.970;2023-02-01T15:27:53;98922.69;;;-0.64;73.19
77867;BME280;67271;59.120;37.970;2023-02-01T15:30:31;98927.00;;;-0.63;73.14
77867;BME280;67271;59.120;37.970;2023-02-01T15:33:27;98923.50;;;-0.64;73.44
77867;BME280;67271;59.120;37.970;2023-02-01T15:36:19;98935.13;;;-0.65;72.91
77867;BME280;67271;59.120;37.970;2023-02-01T15:38:47;98935.44;;;-0.68;73.40
77867;BME280;67271;59.120;37.970;2023-02-01T15:44:02;98938.25;;;-0.69;73.44
77867;BME280;67271;59.120;37.970;2023-02-01T15:46:38;98932.72;;;-0.76;73.33
77867;BME280;67271;59.120;37.970;2023-02-01T15:51:46;98943.66;;;-0.79;73.42
77867;BME280;67271;59.120;37.970;2023-02-01T15:54:17;98942.81;;;-0.80;73.11